Meteorología y climatología de Navarra
Datos de la estación - Meteo Navarra

Estación de Tafalla GN

Altitud 430 m.


Datos desde el 09/11/2019 hasta el 10/11/2019 en horario solar
Los datos son PROVISIONALES

Anterior Página 1 de 1 Siguiente Descargar: Formato para Excel 2000 o superior   Formato csv   Formato para OpenOffice Calc
Fecha Temperatura Humedad relativa Radiación global Insolación Precipitación Vel. viento 10 m Vel. viento 10 m Dir. viento 10 m
ºC % W/m² s l/m² m/s km/h º
09/11/2019 0:00 6.0 88 0.0 0 0.1 4.0 14.2 295
09/11/2019 0:10 6.0 86 0.0 0 0.0 4.2 15.0 305
09/11/2019 0:20 6.3 83 0.0 0 0.0 5.3 19.0 309
09/11/2019 0:30 6.2 85 0.0 0 0.0 4.8 17.1 306
09/11/2019 0:40 6.0 88 0.0 0 0.1 3.0 10.7 295
09/11/2019 0:50 6.0 87 0.0 0 0.0 4.4 15.8 307
09/11/2019 1:00 6.1 86 0.0 0 0.0 3.8 13.5 303
09/11/2019 1:10 6.2 86 0.0 0 0.0 3.4 12.4 299
09/11/2019 1:20 6.2 86 0.0 0 0.0 3.3 12.0 300
09/11/2019 1:30 6.0 89 0.0 0 0.0 2.2 8.0 293
09/11/2019 1:40 5.9 90 0.0 0 0.0 2.2 7.7 301
09/11/2019 1:50 5.9 89 0.0 0 0.0 2.6 9.4 301
09/11/2019 2:00 6.0 88 0.0 0 0.1 3.7 13.4 305
09/11/2019 2:10 6.1 87 0.0 0 0.2 4.4 15.8 306
09/11/2019 2:20 6.1 88 0.0 0 0.0 3.2 11.4 300
09/11/2019 2:30 5.9 90 0.0 0 0.0 3.0 10.9 288
09/11/2019 2:40 5.8 91 0.0 0 0.0 2.3 8.4 287
09/11/2019 2:50 5.9 90 0.0 0 0.0 3.1 11.2 292
09/11/2019 3:00 5.8 90 0.0 0 0.0 4.2 15.0 284
09/11/2019 3:10 5.9 89 0.0 0 0.0 4.0 14.3 284
09/11/2019 3:20 5.9 90 0.0 0 0.0 3.6 12.9 286
09/11/2019 3:30 5.7 90 0.0 0 0.0 3.2 11.4 287
09/11/2019 3:40 5.6 90 0.0 0 0.0 3.7 13.4 287
09/11/2019 3:50 5.5 89 0.0 0 0.0 3.9 14.1 288
09/11/2019 4:00 5.4 89 0.0 0 0.0 3.5 12.7 291
09/11/2019 4:10 5.6 89 0.0 0 0.0 3.9 14.0 288
09/11/2019 4:20 5.8 89 0.0 0 0.1 4.4 15.8 286
09/11/2019 4:30 5.6 90 0.0 0 0.0 3.2 11.7 288
09/11/2019 4:40 5.7 91 0.0 0 0.0 2.9 10.3 290
09/11/2019 4:50 5.6 91 0.0 0 0.0 3.0 10.9 284
09/11/2019 5:00 5.8 90 0.0 0 0.1 3.8 13.5 285
09/11/2019 5:10 5.9 89 0.0 0 0.0 3.1 11.2 283
09/11/2019 5:20 5.9 89 0.0 0 0.0 4.4 15.7 282
09/11/2019 5:30 6.1 88 0.0 0 0.0 3.9 14.1 286
09/11/2019 5:40 6.0 88 0.0 0 0.0 2.8 10.1 295
09/11/2019 5:50 6.0 89 0.0 0 0.0 2.6 9.5 296
09/11/2019 6:00 6.0 89 0.0 0 0.0 2.2 8.0 296
09/11/2019 6:10 6.0 89 0.0 0 0.0 3.1 11.2 303
09/11/2019 6:20 5.8 90 0.0 0 0.0 2.0 7.2 292
09/11/2019 6:30 5.7 91 0.0 0 0.0 3.0 10.9 303
09/11/2019 6:40 5.9 88 0.0 0 0.0 3.2 11.3 306
09/11/2019 6:50 5.8 89 0.0 0 0.0 2.4 8.6 314
09/11/2019 7:00 5.9 90 0.0 0 0.0 3.0 10.8 302
09/11/2019 7:10 5.9 89 24.6 172 0.0 3.5 12.6 306
09/11/2019 7:20 5.9 90 57.4 600 0.0 2.2 7.8 290
09/11/2019 7:30 6.1 90 83.6 600 0.0 2.4 8.7 292
09/11/2019 7:40 6.3 88 64.2 400 0.0 2.6 9.5 293
09/11/2019 7:50 6.3 90 55.0 0 0.0 1.8 6.3 268
09/11/2019 8:00 6.3 89 63.3 80 0.0 2.9 10.6 285
09/11/2019 8:10 6.4 88 58.5 0 0.0 1.2 4.4 263
09/11/2019 8:20 6.4 90 69.4 0 0.0 1.8 6.3 243
09/11/2019 8:30 6.5 90 85.3 0 0.0 1.8 6.6 263
09/11/2019 8:40 6.6 89 76.5 0 0.0 1.8 6.4 257
09/11/2019 8:50 6.6 89 67.1 0 0.0 0.9 3.4 321
09/11/2019 9:00 6.8 88 78.9 0 0.0 0.3 1.0 311
09/11/2019 9:10 6.9 89 107.7 0 0.0 0.6 2.1 253
09/11/2019 9:20 7.0 88 151.3 0 0.0 0.8 2.8 317
09/11/2019 9:30 7.3 85 187.9 146 0.0 1.2 4.3 308
09/11/2019 9:40 7.6 83 217.1 440 0.0 1.7 6.3 260
09/11/2019 9:50 7.8 81 182.6 0 0.0 2.4 8.5 250
09/11/2019 10:00 8.0 80 365.5 474 0.0 1.6 5.6 262
09/11/2019 10:10 8.5 78 386.2 600 0.0 1.6 5.7 278
09/11/2019 10:20 8.5 78 301.1 600 0.0 1.5 5.3 276
09/11/2019 10:30 9.0 79 323.2 600 0.0 2.6 9.4 251
09/11/2019 10:40 9.1 75 348.8 600 0.0 2.3 8.2 277
09/11/2019 10:50 9.0 74 512.1 600 0.0 1.9 6.8 281
09/11/2019 11:00 9.7 71 507.5 600 0.0 1.5 5.3 310
09/11/2019 11:10 9.8 70 343.3 600 0.0 2.7 9.7 277
09/11/2019 11:20 10.1 69 404.1 600 0.0 2.7 9.9 286
09/11/2019 11:30 10.3 68 305.0 600 0.0 3.0 10.7 304
09/11/2019 11:40 10.3 67 277.0 384 0.0 4.0 14.4 288
09/11/2019 11:50 10.1 70 195.8 0 0.0 3.4 12.3 310
09/11/2019 12:00 9.8 70 143.3 0 0.0 3.4 12.1 312
09/11/2019 12:10 9.6 72 112.3 0 0.0 3.4 12.1 313
09/11/2019 12:20 9.4 73 151.0 0 0.1 3.4 12.3 297
09/11/2019 12:30 9.2 75 146.9 0 0.0 3.2 11.4 289
09/11/2019 12:40 9.1 77 183.8 0 0.1 3.2 11.4 285
09/11/2019 12:50 9.0 76 181.4 0 0.0 3.7 13.4 281
09/11/2019 13:00 8.9 77 104.6 0 0.0 3.1 11.2 278
09/11/2019 13:10 8.8 77 121.3 0 0.0 2.3 8.4 276
09/11/2019 13:20 8.8 78 186.1 116 0.0 1.6 5.8 316
09/11/2019 13:30 9.0 78 334.2 350 0.0 1.5 5.3 317
09/11/2019 13:40 9.6 75 410.6 600 0.0 1.6 5.6 319
09/11/2019 13:50 9.8 73 447.1 600 0.0 1.8 6.6 279
09/11/2019 14:00 10.3 72 338.0 492 0.0 2.4 8.6 275
09/11/2019 14:10 10.6 69 172.9 0 0.0 5.0 17.8 274
09/11/2019 14:20 10.3 69 83.8 0 0.0 5.9 21.4 276
09/11/2019 14:30 9.8 73 67.1 0 0.1 5.0 18.1 278
09/11/2019 14:40 9.4 78 80.4 0 0.0 3.9 14.0 283
09/11/2019 14:50 9.3 78 51.1 0 0.1 2.4 8.7 304
09/11/2019 15:00 9.2 79 35.4 0 0.0 2.1 7.7 326
09/11/2019 15:10 9.0 82 42.6 0 0.0 1.5 5.3 6
09/11/2019 15:20 8.8 82 32.8 0 0.0 1.9 7.0 358
09/11/2019 15:30 8.8 83 46.3 0 0.0 1.6 5.6 344
09/11/2019 15:40 8.9 82 46.6 0 0.0 1.5 5.4 348
09/11/2019 15:50 8.9 82 33.3 0 0.0 1.2 4.4 359
09/11/2019 16:00 8.9 82 16.9 0 0.0 0.7 2.6 21
09/11/2019 16:10 8.8 83 2.0 0 0.0 0.8 3.0 41
09/11/2019 16:20 8.9 83 0.0 0 0.0 0.7 2.6 78
09/11/2019 16:30 8.8 84 0.0 0 0.0 1.0 3.6 111
09/11/2019 16:40 8.8 86 0.0 0 0.0 0.2 0.8 144
09/11/2019 16:50 8.7 87 0.0 0 0.0 0.6 2.2 123
09/11/2019 17:00 8.6 88 0.0 0 0.0 0.3 1.2 101
09/11/2019 17:10 8.6 88 0.0 0 0.0 0.6 2.0 331
09/11/2019 17:20 8.7 87 0.0 0 0.0 1.3 4.7 272
09/11/2019 17:30 9.6 78 0.0 0 0.0 3.7 13.4 306
09/11/2019 17:40 9.6 79 0.0 0 0.1 3.1 11.1 312
09/11/2019 17:50 9.2 83 0.0 0 0.0 2.3 8.4 331
09/11/2019 18:00 9.0 84 0.0 0 0.0 3.0 10.7 339
09/11/2019 18:10 8.9 84 0.0 0 0.0 2.5 9.1 346
09/11/2019 18:20 8.9 84 0.0 0 0.0 3.2 11.6 329
09/11/2019 18:30 9.2 82 0.0 0 0.0 3.9 13.9 316
09/11/2019 18:40 9.3 80 0.0 0 0.0 3.7 13.2 319
09/11/2019 18:50 9.0 83 0.0 0 0.0 3.0 10.9 323
09/11/2019 19:00 8.9 83 0.0 0 0.0 2.4 8.7 322
09/11/2019 19:10 9.0 83 0.0 0 0.0 3.0 10.6 330
09/11/2019 19:20 9.1 83 0.0 0 0.0 3.5 12.5 337
09/11/2019 19:30 9.0 83 0.0 0 0.0 3.0 10.7 334
09/11/2019 19:40 9.0 83 0.0 0 0.0 2.5 9.1 328
09/11/2019 19:50 9.0 85 0.0 0 0.0 2.5 9.1 338
09/11/2019 20:00 8.9 85 0.0 0 0.0 2.3 8.3 322
09/11/2019 20:10 8.8 87 0.0 0 0.0 3.2 11.5 320
09/11/2019 20:20 8.9 75 0.0 0 0.1 6.9 24.7 318
09/11/2019 20:30 8.5 74 0.0 0 0.0 5.8 20.8 317
09/11/2019 20:40 8.4 73 0.0 0 0.0 5.2 18.5 306
09/11/2019 20:50 8.3 73 0.0 0 0.0 6.9 24.7 301
09/11/2019 21:00 8.1 74 0.0 0 0.2 6.8 24.4 309
09/11/2019 21:10 7.4 81 0.0 0 0.3 5.0 18.0 313
09/11/2019 21:20 7.0 84 0.0 0 0.1 5.1 18.5 303
09/11/2019 21:30 6.9 85 0.0 0 0.0 3.6 12.8 318
09/11/2019 21:40 6.7 86 0.0 0 0.1 3.0 10.7 314
09/11/2019 21:50 6.5 87 0.0 0 0.0 3.2 11.6 295
09/11/2019 22:00 6.3 87 0.0 0 0.0 3.6 12.8 305
09/11/2019 22:10 6.2 82 0.0 0 0.0 3.8 13.6 295
09/11/2019 22:20 5.9 84 0.0 0 0.0 3.1 11.0 289
09/11/2019 22:30 5.7 84 0.0 0 0.0 2.3 8.2 303
09/11/2019 22:40 5.7 84 0.0 0 0.0 2.9 10.3 296
09/11/2019 22:50 5.9 83 0.0 0 0.0 2.8 10.0 288
09/11/2019 23:00 5.8 83 0.0 0 0.0 2.3 8.4 284
09/11/2019 23:10 5.9 83 0.0 0 0.0 2.7 9.8 286
09/11/2019 23:20 5.6 84 0.0 0 0.0 2.8 10.2 298
09/11/2019 23:30 5.6 85 0.0 0 0.0 2.6 9.3 312
09/11/2019 23:40 5.4 86 0.0 0 0.0 2.2 8.0 308
09/11/2019 23:50 5.3 86 0.0 0 0.0 1.6 5.9 296
Anterior Página 1 de 1 Siguiente

NOTA: Tipo de datos según el color:
   - Valores diarios o 10 minutos correctos
   - Valores diarios calculados a partir de un número de datos 10 minutos menor que 144 y mayor que 120, o de un número de datos semihorarios menor que 48 y mayor que 40 (caso de las estaciones de Riegos de Navarra y del MARM)
   - Valores diez minutos estimados


Contacto        Enlaces        Aviso legal